Time;durP1;ratioP1;P1;durP2;ratioP2;P2;SDS_P1;SDS_P2;PMS_P1;PMS_P2;Temp;Humidity;BMP_temperature;BMP_pressure;BME280_temperature;BME280_humidity;BME280_pressure;Samples;Min_cycle;Max_cycle;Signal;HPM_P1;HPM_P2
2023/10/14 00:01:11;;;;;;;2.72;0.45;;;14.50;86.30;;;;;;5066841;28;20095;-78
2023/10/14 00:03:41;;;;;;;2.93;0.43;;;14.40;86.50;;;;;;5054415;28;20064;-77
2023/10/14 00:06:11;;;;;;;3.30;0.40;;;14.40;86.90;;;;;;5065300;28;20247;-78
2023/10/14 00:08:47;;;;;;;4.10;0.40;;;14.40;87.30;;;;;;5066072;28;20110;-78
2023/10/14 00:11:15;;;;;;;4.20;0.32;;;14.30;87.10;;;;;;5100625;28;20650;-77
2023/10/14 00:13:43;;;;;;;4.63;0.40;;;14.30;86.90;;;;;;5067748;28;20083;-77
2023/10/14 00:16:29;;;;;;;4.33;0.43;;;14.20;86.70;;;;;;5049893;28;20077;-78
2023/10/14 00:18:57;;;;;;;2.05;0.30;;;14.20;86.50;;;;;;5066725;28;20257;-78
2023/10/14 00:21:24;;;;;;;3.95;0.43;;;14.10;86.20;;;;;;5067603;28;20715;-79
2023/10/14 00:23:55;;;;;;;5.03;0.38;;;14.00;86.20;;;;;;5083149;28;20596;-78
2023/10/14 00:26:23;;;;;;;2.85;0.25;;;14.00;85.80;;;;;;5063692;28;20072;-77
2023/10/14 00:28:55;;;;;;;4.40;0.50;;;13.90;85.80;;;;;;5047950;28;20054;-79
2023/10/14 00:31:24;;;;;;;4.57;0.77;;;13.90;85.90;;;;;;5063781;28;20324;-78
2023/10/14 00:33:52;;;;;;;2.95;0.28;;;13.90;85.90;;;;;;5029387;28;20088;-78
2023/10/14 00:36:21;;;;;;;4.45;0.40;;;13.90;85.80;;;;;;5030213;28;20108;-78
2023/10/14 00:38:55;;;;;;;3.53;0.38;;;13.90;85.70;;;;;;5029590;28;20063;-78
2023/10/14 00:41:25;;;;;;;3.87;0.40;;;13.90;85.40;;;;;;5030075;28;20042;-78
2023/10/14 00:43:53;;;;;;;10.38;0.60;;;13.80;85.20;;;;;;5079675;28;20356;-79
2023/10/14 00:46:23;;;;;;;4.38;0.50;;;13.70;85.00;;;;;;5047481;28;20458;-79
2023/10/14 00:48:58;;;;;;;6.15;0.60;;;13.70;84.40;;;;;;5079608;28;20047;-79
2023/10/14 00:51:26;;;;;;;9.10;1.00;;;13.60;84.20;;;;;;5069534;28;20045;-78
2023/10/14 00:54:01;;;;;;;4.77;0.50;;;13.50;84.10;;;;;;5052840;28;20049;-79
2023/10/14 00:56:28;;;;;;;6.22;0.60;;;13.50;83.80;;;;;;5069902;28;20276;-79
2023/10/14 00:58:59;;;;;;;5.15;0.70;;;13.50;84.10;;;;;;5071523;28;20115;-79
2023/10/14 01:01:32;;;;;;;6.45;0.73;;;13.50;84.30;;;;;;5052540;28;20489;-79
2023/10/14 01:04:18;;;;;;;6.47;0.77;;;13.40;84.30;;;;;;5052000;28;20049;-78
2023/10/14 01:06:59;;;;;;;7.97;0.60;;;13.40;84.50;;;;;;5103802;28;20045;-78
2023/10/14 01:09:41;;;;;;;6.65;0.52;;;13.30;84.70;;;;;;5103677;28;20258;-79
2023/10/14 01:12:16;;;;;;;5.13;0.80;;;13.30;85.00;;;;;;5052248;28;20053;-78
2023/10/14 01:14:44;;;;;;;4.40;0.70;;;13.30;85.00;;;;;;5064134;28;20045;-79
2023/10/14 01:17:12;;;;;;;4.75;0.50;;;13.30;85.10;;;;;;5049664;28;20066;-78
2023/10/14 01:19:43;;;;;;;6.30;0.57;;;13.30;85.00;;;;;;5032477;28;20060;-79
2023/10/14 01:22:13;;;;;;;6.30;0.65;;;13.30;85.00;;;;;;5049601;28;20352;-78
2023/10/14 01:24:41;;;;;;;6.68;0.85;;;13.30;85.00;;;;;;5041395;28;20533;-78
2023/10/14 01:27:10;;;;;;;7.15;0.70;;;13.30;85.00;;;;;;5063221;28;20046;-79
2023/10/14 01:29:40;;;;;;;7.47;0.95;;;13.20;85.00;;;;;;5059765;28;20056;-78
2023/10/14 01:32:37;;;;;;;7.53;1.00;;;13.10;85.00;;;;;;5052508;28;20062;-78
2023/10/14 01:35:16;;;;;;;4.18;0.55;;;13.10;85.10;;;;;;5069204;28;20272;-79
2023/10/14 01:37:45;;;;;;;6.35;0.65;;;13.10;85.00;;;;;;5051493;28;20053;-78
2023/10/14 01:40:24;;;;;;;5.25;0.70;;;13.10;85.00;;;;;;5032567;28;20046;-78
2023/10/14 01:42:56;;;;;;;6.88;0.60;;;13.00;85.00;;;;;;5048311;28;20050;-79
2023/10/14 01:45:27;;;;;;;6.43;0.53;;;13.00;85.00;;;;;;5032127;28;20058;-79
2023/10/14 01:48:11;;;;;;;8.35;1.02;;;12.90;85.10;;;;;;5048963;28;20953;-79
2023/10/14 01:50:39;;;;;;;6.72;0.60;;;12.90;85.10;;;;;;5050160;28;20096;-79
2023/10/14 01:53:11;;;;;;;4.13;0.43;;;12.90;85.10;;;;;;5031817;28;20606;-78
2023/10/14 01:55:41;;;;;;;5.80;0.73;;;12.90;84.80;;;;;;5047523;28;20049;-79
2023/10/14 01:58:10;;;;;;;2.90;0.30;;;12.80;84.50;;;;;;5030555;28;20049;-79
2023/10/14 02:00:39;;;;;;;5.28;0.77;;;12.80;84.20;;;;;;5030412;28;20768;-79
2023/10/14 02:03:08;;;;;;;7.00;1.13;;;12.70;84.20;;;;;;5047207;28;20046;-79
2023/10/14 02:05:39;;;;;;;1.98;0.28;;;12.70;84.10;;;;;;5031034;28;20080;-78
2023/10/14 02:08:15;;;;;;;5.97;0.68;;;12.60;83.70;;;;;;5030473;28;20069;-79
2023/10/14 02:10:46;;;;;;;5.27;0.80;;;12.60;83.60;;;;;;5048047;28;20484;-79
2023/10/14 02:13:15;;;;;;;3.88;0.68;;;12.50;83.50;;;;;;5031728;28;20260;-79
2023/10/14 02:15:46;;;;;;;5.20;0.80;;;12.50;83.40;;;;;;5057190;28;20053;-79
2023/10/14 02:18:15;;;;;;;5.85;0.70;;;12.50;83.20;;;;;;5050503;28;20520;-79
2023/10/14 02:20:56;;;;;;;5.60;1.08;;;12.50;83.10;;;;;;5031689;28;20554;-79
2023/10/14 02:23:27;;;;;;;4.03;0.37;;;12.40;82.80;;;;;;5048134;28;20046;-79
2023/10/14 02:25:57;;;;;;;5.03;0.45;;;12.40;82.30;;;;;;5093772;28;20268;-79
2023/10/14 02:28:29;;;;;;;7.07;1.00;;;12.30;81.90;;;;;;5082277;28;20060;-79
2023/10/14 02:31:00;;;;;;;6.25;0.50;;;12.30;81.60;;;;;;5055082;28;20057;-79
2023/10/14 02:33:28;;;;;;;5.57;0.82;;;12.20;81.30;;;;;;5068126;28;20082;-79
2023/10/14 02:35:59;;;;;;;5.93;0.70;;;12.20;81.00;;;;;;5051019;28;20053;-79
2023/10/14 02:38:30;;;;;;;1.98;0.30;;;12.10;80.70;;;;;;5068167;28;20314;-79
2023/10/14 02:41:04;;;;;;;6.38;1.10;;;12.00;80.80;;;;;;5051105;28;20044;-79
2023/10/14 02:43:31;;;;;;;3.95;0.55;;;11.90;80.70;;;;;;5035142;28;20572;-79
2023/10/14 02:46:00;;;;;;;7.32;0.70;;;11.90;80.20;;;;;;5047953;28;20143;-79
2023/10/14 02:48:49;;;;;;;6.90;0.63;;;11.90;79.80;;;;;;5031203;28;20053;-78
2023/10/14 02:51:17;;;;;;;10.25;0.77;;;11.80;80.10;;;;;;5047716;28;20346;-79
2023/10/14 02:53:45;;;;;;;7.47;0.90;;;11.70;80.10;;;;;;5047668;28;20451;-79
2023/10/14 02:56:21;;;;;;;8.15;1.15;;;11.70;80.20;;;;;;5049819;28;20057;-78
2023/10/14 02:58:48;;;;;;;6.05;1.02;;;11.70;80.20;;;;;;5031129;28;20049;-78
2023/10/14 03:01:15;;;;;;;4.33;0.80;;;11.70;80.20;;;;;;5031194;28;20164;-79
2023/10/14 03:03:46;;;;;;;3.92;0.52;;;11.70;80.00;;;;;;5030590;28;20655;-78
2023/10/14 03:06:14;;;;;;;8.85;0.82;;;11.60;80.10;;;;;;5031339;28;20060;-78
2023/10/14 03:08:57;;;;;;;8.05;0.60;;;11.50;79.90;;;;;;5030152;28;20183;-80
2023/10/14 03:11:30;;;;;;;8.15;1.02;;;11.50;80.00;;;;;;5081301;28;20104;-79
2023/10/14 03:13:57;;;;;;;8.87;0.70;;;11.50;79.80;;;;;;5049394;28;20041;-79
2023/10/14 03:16:26;;;;;;;10.32;1.25;;;11.50;79.80;;;;;;5069087;28;20781;-78
2023/10/14 03:18:52;;;;;;;8.73;0.80;;;11.40;80.00;;;;;;5050501;28;20077;-79
2023/10/14 03:21:28;;;;;;;7.45;0.95;;;11.40;80.00;;;;;;5050950;28;20053;-78
2023/10/14 03:23:56;;;;;;;5.70;0.57;;;11.40;80.30;;;;;;5066750;28;20079;-78
2023/10/14 03:26:28;;;;;;;5.03;0.60;;;11.40;80.30;;;;;;5081439;28;20057;-79
2023/10/14 03:28:56;;;;;;;4.63;0.43;;;11.30;80.40;;;;;;5080845;28;20257;-78
2023/10/14 03:31:24;;;;;;;4.93;0.38;;;11.30;80.40;;;;;;5047460;28;20077;-79
2023/10/14 03:33:58;;;;;;;7.05;0.90;;;11.30;80.50;;;;;;5030802;28;20124;-79
2023/10/14 03:36:28;;;;;;;7.75;1.20;;;11.30;80.40;;;;;;5063884;28;20709;-78
2023/10/14 03:38:58;;;;;;;9.80;1.00;;;11.20;80.50;;;;;;5047694;28;20107;-78
2023/10/14 03:41:29;;;;;;;5.30;0.60;;;11.20;80.70;;;;;;5069413;28;20718;-78
2023/10/14 03:44:00;;;;;;;7.28;1.17;;;11.20;80.50;;;;;;5066730;28;20187;-79
2023/10/14 03:46:31;;;;;;;6.13;0.60;;;11.10;80.60;;;;;;5048744;28;20060;-78
2023/10/14 03:48:58;;;;;;;6.90;0.80;;;11.10;80.90;;;;;;5064131;28;20103;-78
2023/10/14 03:51:27;;;;;;;7.73;0.63;;;11.10;80.90;;;;;;5067215;28;20053;-79
2023/10/14 03:53:55;;;;;;;8.07;0.90;;;11.10;81.10;;;;;;5066890;28;20256;-78
2023/10/14 03:56:25;;;;;;;8.45;0.98;;;11.10;81.20;;;;;;5083778;28;20147;-79
2023/10/14 03:58:55;;;;;;;6.72;0.73;;;11.10;81.00;;;;;;5067372;28;20079;-79
2023/10/14 04:01:28;;;;;;;8.63;0.90;;;11.20;81.00;;;;;;5067061;28;20619;-78
2023/10/14 04:03:55;;;;;;;6.50;0.97;;;11.20;81.00;;;;;;5066865;28;20392;-78
2023/10/14 04:06:23;;;;;;;6.93;1.20;;;11.10;81.10;;;;;;5050040;28;20286;-78
2023/10/14 04:08:50;;;;;;;9.27;1.00;;;11.10;81.20;;;;;;5067246;28;20118;-78
2023/10/14 04:11:25;;;;;;;6.43;0.70;;;11.10;81.30;;;;;;5068544;28;20535;-79
2023/10/14 04:13:58;;;;;;;10.65;0.98;;;11.10;81.40;;;;;;5066836;28;20049;-78
2023/10/14 04:16:48;;;;;;;3.30;0.40;;;11.10;81.40;;;;;;5049889;28;20131;-79
2023/10/14 04:19:22;;;;;;;9.20;0.88;;;11.20;81.60;;;;;;5068436;28;20251;-78
2023/10/14 04:21:58;;;;;;;11.60;0.90;;;11.10;81.50;;;;;;5069840;28;20049;-78
2023/10/14 04:24:35;;;;;;;6.97;1.23;;;11.20;81.50;;;;;;5104554;28;20053;-79
2023/10/14 04:27:16;;;;;;;8.10;1.05;;;11.20;81.50;;;;;;5104423;28;20473;-79
2023/10/14 04:29:51;;;;;;;7.60;0.90;;;11.20;81.50;;;;;;5103610;27;20132;-78
2023/10/14 04:32:26;;;;;;;7.47;0.98;;;11.20;81.60;;;;;;5070414;28;20757;-78
2023/10/14 04:34:56;;;;;;;7.00;1.10;;;11.30;81.70;;;;;;5053235;28;20120;-78
2023/10/14 04:37:26;;;;;;;6.13;0.90;;;11.30;81.60;;;;;;5053352;28;20056;-78
2023/10/14 04:39:58;;;;;;;6.25;0.85;;;11.30;81.60;;;;;;5069785;28;20574;-79
2023/10/14 04:42:43;;;;;;;7.13;0.70;;;11.30;81.60;;;;;;5069880;28;20052;-78
2023/10/14 04:45:13;;;;;;;7.15;0.90;;;11.30;81.50;;;;;;5069976;28;20279;-78
2023/10/14 04:47:44;;;;;;;8.38;1.08;;;11.30;81.50;;;;;;5070577;28;20148;-79
2023/10/14 04:50:21;;;;;;;8.68;1.15;;;11.30;81.40;;;;;;5069772;28;20080;-78
2023/10/14 04:52:49;;;;;;;9.73;1.13;;;11.30;81.40;;;;;;5070222;28;20562;-78
2023/10/14 04:55:28;;;;;;;8.57;1.20;;;11.30;81.20;;;;;;5069475;28;20535;-79
2023/10/14 04:58:11;;;;;;;8.90;1.08;;;11.30;81.10;;;;;;5069822;28;20357;-78
2023/10/14 05:00:43;;;;;;;5.85;0.60;;;11.30;80.90;;;;;;5070018;28;20126;-78
2023/10/14 05:03:13;;;;;;;8.93;1.17;;;11.20;80.80;;;;;;5069048;28;20083;-78
2023/10/14 05:05:43;;;;;;;8.75;0.80;;;11.20;80.80;;;;;;5071054;28;20501;-78
2023/10/14 05:08:15;;;;;;;11.27;0.87;;;11.20;80.70;;;;;;5103786;28;20049;-78
2023/10/14 05:10:43;;;;;;;7.32;0.70;;;11.20;80.50;;;;;;5069146;28;20275;-78
2023/10/14 05:13:12;;;;;;;6.10;0.85;;;11.10;80.70;;;;;;5086706;28;20060;-79
2023/10/14 05:15:41;;;;;;;5.90;1.02;;;11.10;80.70;;;;;;5071016;28;20103;-78
2023/10/14 05:18:14;;;;;;;6.10;0.68;;;11.10;80.60;;;;;;5069503;28;20048;-78
2023/10/14 05:21:02;;;;;;;6.33;1.00;;;11.10;80.50;;;;;;5069217;28;20056;-78
2023/10/14 05:23:31;;;;;;;9.00;1.02;;;11.10;80.30;;;;;;5103247;28;20287;-78
2023/10/14 05:25:59;;;;;;;9.30;0.70;;;11.10;80.30;;;;;;5052319;28;20045;-78
2023/10/14 05:28:31;;;;;;;6.97;0.90;;;11.10;80.20;;;;;;5064011;28;20088;-78
2023/10/14 05:31:00;;;;;;;9.15;1.10;;;11.10;80.20;;;;;;5049037;28;20131;-78
2023/10/14 05:33:28;;;;;;;9.17;1.23;;;11.10;80.00;;;;;;5048444;28;20049;-78
2023/10/14 05:36:01;;;;;;;7.90;0.65;;;11.10;79.80;;;;;;5065725;28;20249;-78
2023/10/14 05:38:28;;;;;;;8.45;1.23;;;11.10;79.60;;;;;;5031934;28;20052;-78
2023/10/14 05:40:56;;;;;;;8.40;0.70;;;11.10;79.70;;;;;;5048708;28;20048;-78
2023/10/14 05:43:24;;;;;;;9.73;1.13;;;11.00;79.70;;;;;;5050137;28;20100;-79
2023/10/14 05:45:52;;;;;;;12.47;0.90;;;11.00;79.60;;;;;;5048535;28;20091;-78
2023/10/14 05:48:26;;;;;;;8.70;0.98;;;11.00;79.70;;;;;;5048551;28;20468;-78
2023/10/14 05:50:55;;;;;;;7.70;1.10;;;11.00;79.70;;;;;;5048163;28;20060;-78
2023/10/14 05:53:24;;;;;;;7.95;0.95;;;10.90;79.70;;;;;;5049991;28;20535;-78
2023/10/14 05:55:58;;;;;;;7.65;0.80;;;10.90;79.70;;;;;;5048295;28;20072;-78
2023/10/14 05:58:27;;;;;;;9.17;0.80;;;10.90;79.80;;;;;;5032097;28;20049;-79
2023/10/14 06:00:55;;;;;;;11.52;1.35;;;10.80;80.00;;;;;;5082103;28;20253;-78
2023/10/14 06:03:22;;;;;;;9.10;0.95;;;10.80;80.00;;;;;;5031327;28;20046;-78
2023/10/14 06:05:49;;;;;;;7.80;0.60;;;10.70;80.20;;;;;;5047942;28;20050;-78
2023/10/14 06:08:17;;;;;;;9.38;0.90;;;10.80;80.30;;;;;;5048570;28;20076;-79
2023/10/14 06:10:46;;;;;;;9.93;0.90;;;10.70;80.40;;;;;;5049885;28;20543;-78
2023/10/14 06:13:13;;;;;;;8.98;0.98;;;10.70;80.10;;;;;;5047711;28;20925;-78
2023/10/14 06:15:41;;;;;;;9.32;0.75;;;10.70;80.10;;;;;;5031243;28;20927;-78
2023/10/14 06:18:09;;;;;;;8.35;0.70;;;10.70;80.20;;;;;;5049237;28;20050;-79
2023/10/14 06:20:37;;;;;;;7.95;0.90;;;10.60;80.30;;;;;;5064905;28;20516;-79
2023/10/14 06:23:07;;;;;;;8.60;0.93;;;10.60;80.40;;;;;;5065236;28;20049;-78
2023/10/14 06:25:36;;;;;;;11.02;0.77;;;10.60;80.40;;;;;;5051943;28;20272;-78
2023/10/14 06:28:07;;;;;;;7.00;1.08;;;10.60;80.50;;;;;;5067778;28;20057;-78
2023/10/14 06:30:34;;;;;;;8.02;0.90;;;10.60;80.40;;;;;;5031248;28;20185;-78
2023/10/14 06:33:04;;;;;;;7.57;0.95;;;10.60;80.40;;;;;;5047856;28;20594;-78
2023/10/14 06:35:32;;;;;;;6.73;0.77;;;10.50;80.40;;;;;;5047842;28;20427;-78
2023/10/14 06:37:59;;;;;;;8.45;0.95;;;10.50;80.30;;;;;;5031038;28;20774;-78
2023/10/14 06:40:35;;;;;;;8.20;1.08;;;10.50;80.10;;;;;;5066226;28;20049;-82
2023/10/14 06:43:06;;;;;;;10.60;0.73;;;10.60;80.10;;;;;;5066272;28;20049;-80
2023/10/14 06:45:34;;;;;;;7.85;0.80;;;10.60;80.30;;;;;;5064549;28;20628;-80
2023/10/14 06:48:03;;;;;;;11.80;1.20;;;10.60;80.00;;;;;;5067464;28;20063;-81
2023/10/14 06:50:37;;;;;;;9.85;0.77;;;10.60;79.80;;;;;;5065536;28;20253;-81
2023/10/14 06:53:07;;;;;;;9.80;1.50;;;10.60;79.80;;;;;;5098554;28;20185;-81
2023/10/14 06:55:39;;;;;;;8.40;0.80;;;10.60;79.70;;;;;;5065803;28;20052;-81
2023/10/14 06:58:08;;;;;;;8.25;0.88;;;10.70;79.70;;;;;;5066306;28;20053;-81
2023/10/14 07:00:39;;;;;;;5.37;0.63;;;10.70;79.80;;;;;;5066740;28;20057;-82
2023/10/14 07:03:12;;;;;;;7.70;0.77;;;10.70;79.70;;;;;;5067246;28;20263;-81
2023/10/14 07:05:46;;;;;;;8.40;1.23;;;10.70;79.70;;;;;;5099890;28;20593;-81
2023/10/14 07:08:13;;;;;;;7.53;0.90;;;10.70;79.80;;;;;;5064926;28;20049;-81
2023/10/14 07:10:40;;;;;;;12.73;1.30;;;10.70;79.80;;;;;;5049960;28;20136;-82
2023/10/14 07:13:09;;;;;;;6.47;0.70;;;10.70;79.70;;;;;;5049611;28;20055;-80
2023/10/14 07:15:41;;;;;;;7.63;0.80;;;10.70;79.70;;;;;;5066665;28;20347;-81
2023/10/14 07:18:09;;;;;;;10.80;1.38;;;10.80;79.80;;;;;;5068638;28;20053;-79
2023/10/14 07:20:39;;;;;;;7.40;1.05;;;10.80;79.80;;;;;;5068436;28;20095;-79
2023/10/14 07:23:08;;;;;;;8.35;0.90;;;10.80;79.80;;;;;;5050491;28;20048;-77
2023/10/14 07:25:37;;;;;;;10.00;1.00;;;10.80;79.90;;;;;;5066161;28;20049;-78
2023/10/14 07:28:08;;;;;;;7.88;0.98;;;10.80;80.20;;;;;;5065662;28;20267;-79
2023/10/14 07:30:36;;;;;;;8.10;1.23;;;10.90;80.00;;;;;;5065702;28;20044;-80
2023/10/14 07:33:06;;;;;;;9.80;0.60;;;10.90;79.90;;;;;;5054328;28;21136;-81
2023/10/14 07:35:33;;;;;;;10.15;1.17;;;11.00;79.90;;;;;;5049479;28;20116;-81
2023/10/14 07:38:01;;;;;;;9.07;0.73;;;11.00;79.90;;;;;;5066519;28;20136;-80
2023/10/14 07:40:34;;;;;;;4.15;0.20;;;11.00;79.90;;;;;;5067021;28;20295;-78
2023/10/14 07:43:06;;;;;;;9.57;1.20;;;11.10;80.10;;;;;;5066903;28;20051;-79
2023/10/14 07:45:34;;;;;;;10.95;1.27;;;11.10;80.00;;;;;;5065897;28;20591;-79
2023/10/14 07:48:08;;;;;;;7.78;0.95;;;11.10;79.90;;;;;;5059009;28;20056;-79
2023/10/14 07:50:37;;;;;;;7.50;0.80;;;11.20;80.10;;;;;;5097679;28;20573;-79
2023/10/14 07:53:08;;;;;;;9.32;1.40;;;11.30;79.90;;;;;;5063915;28;20659;-79
2023/10/14 07:55:39;;;;;;;12.60;1.55;;;11.30;79.80;;;;;;5097322;27;20865;-77
2023/10/14 07:58:08;;;;;;;15.13;1.42;;;11.40;79.60;;;;;;5065384;28;20849;-79
2023/10/14 08:00:39;;;;;;;7.07;0.73;;;11.40;79.00;;;;;;5062897;28;20533;-79
2023/10/14 08:03:14;;;;;;;5.37;0.90;;;11.50;78.60;;;;;;5062182;28;20075;-78
2023/10/14 08:05:43;;;;;;;6.32;0.73;;;11.50;78.40;;;;;;5078667;28;20248;-78
2023/10/14 08:08:11;;;;;;;9.77;1.10;;;11.60;78.40;;;;;;5059271;28;20123;-78
2023/10/14 08:10:41;;;;;;;5.40;0.47;;;11.70;78.40;;;;;;5067952;28;20049;-78
2023/10/14 08:13:09;;;;;;;9.90;1.00;;;11.70;78.40;;;;;;5059944;28;20537;-79
2023/10/14 08:15:57;;;;;;;12.27;1.33;;;11.80;78.20;;;;;;5066501;28;20140;-78
2023/10/14 08:18:26;;;;;;;6.78;0.80;;;11.90;77.50;;;;;;5049058;28;20818;-77
2023/10/14 08:20:54;;;;;;;4.90;0.60;;;11.90;77.20;;;;;;5068279;28;20082;-78
2023/10/14 08:23:22;;;;;;;10.85;0.95;;;12.00;76.80;;;;;;5056246;28;20518;-80
2023/10/14 08:25:53;;;;;;;10.27;1.55;;;12.00;77.20;;;;;;5066502;28;20045;-80
2023/10/14 08:28:21;;;;;;;6.73;1.20;;;12.10;76.70;;;;;;5066758;28;20053;-79
2023/10/14 08:30:50;;;;;;;4.95;0.65;;;12.10;76.60;;;;;;5099898;28;20256;-79
2023/10/14 08:33:19;;;;;;;7.05;0.60;;;12.20;75.40;;;;;;5066407;28;20053;-79
2023/10/14 08:35:50;;;;;;;9.27;0.85;;;12.30;75.50;;;;;;5065895;28;20041;-78
2023/10/14 08:38:21;;;;;;;7.25;0.90;;;12.30;75.60;;;;;;5056939;28;20056;-79
2023/10/14 08:40:52;;;;;;;13.10;1.10;;;12.40;74.50;;;;;;5049659;28;20513;-79
2023/10/14 08:43:22;;;;;;;8.07;0.90;;;12.50;74.40;;;;;;5058983;28;20314;-78
2023/10/14 08:45:49;;;;;;;4.60;0.40;;;12.50;73.90;;;;;;5066058;28;20042;-79
2023/10/14 08:48:18;;;;;;;7.13;0.70;;;12.50;73.70;;;;;;5066485;28;20048;-78
2023/10/14 08:50:49;;;;;;;5.65;0.75;;;12.60;71.70;;;;;;5064679;28;20057;-79
2023/10/14 08:53:17;;;;;;;10.60;1.23;;;12.60;72.20;;;;;;5065906;28;20179;-80
2023/10/14 08:55:46;;;;;;;5.82;0.65;;;12.70;71.70;;;;;;5049107;28;20332;-80
2023/10/14 08:58:14;;;;;;;5.70;0.95;;;12.70;71.80;;;;;;5064976;28;20586;-79
2023/10/14 09:00:43;;;;;;;6.25;0.50;;;12.80;71.70;;;;;;5048035;28;20041;-80
2023/10/14 09:03:11;;;;;;;10.35;1.02;;;12.80;72.10;;;;;;5064575;28;20069;-78
2023/10/14 09:05:40;;;;;;;7.07;0.90;;;12.80;72.60;;;;;;5064961;28;20080;-78
2023/10/14 09:08:11;;;;;;;9.02;1.35;;;12.80;72.60;;;;;;5067490;28;20303;-78
2023/10/14 09:10:39;;;;;;;8.40;1.20;;;12.90;72.50;;;;;;5052092;28;20056;-79
2023/10/14 09:13:08;;;;;;;4.38;0.50;;;12.90;72.40;;;;;;5053053;28;20542;-77
2023/10/14 09:15:39;;;;;;;12.65;0.98;;;12.90;72.20;;;;;;5069319;28;20052;-79
2023/10/14 09:18:13;;;;;;;7.40;1.00;;;12.90;72.90;;;;;;5069915;28;20131;-80
2023/10/14 09:20:41;;;;;;;10.38;0.80;;;13.00;71.80;;;;;;5069980;28;20680;-81
2023/10/14 09:23:17;;;;;;;7.20;0.80;;;13.00;72.20;;;;;;5069823;28;20694;-80
2023/10/14 09:25:46;;;;;;;4.60;0.63;;;13.00;71.20;;;;;;5049466;28;20136;-80
2023/10/14 09:28:16;;;;;;;7.03;0.50;;;13.10;70.30;;;;;;5066260;28;20056;-79
2023/10/14 09:30:46;;;;;;;6.90;0.77;;;13.10;69.10;;;;;;5052761;28;20056;-79
2023/10/14 09:33:16;;;;;;;5.22;0.60;;;13.10;69.00;;;;;;5069322;28;20240;-80
2023/10/14 09:35:49;;;;;;;7.68;0.85;;;13.10;68.20;;;;;;5068746;28;20049;-80
2023/10/14 09:38:20;;;;;;;8.00;0.65;;;13.10;69.10;;;;;;5039472;28;20048;-80
2023/10/14 09:40:57;;;;;;;6.85;0.55;;;13.20;69.70;;;;;;5069402;28;20053;-79
2023/10/14 09:43:25;;;;;;;5.20;0.63;;;13.30;69.10;;;;;;5068177;28;20461;-79
2023/10/14 09:45:55;;;;;;;3.88;0.85;;;13.30;69.00;;;;;;5070866;28;20343;-79
2023/10/14 09:48:25;;;;;;;3.75;0.50;;;13.30;66.40;;;;;;5068613;28;20056;-78
2023/10/14 09:50:54;;;;;;;7.25;0.60;;;13.30;66.80;;;;;;5069015;28;20056;-80
2023/10/14 09:53:26;;;;;;;3.80;0.30;;;13.30;66.90;;;;;;5067962;28;20056;-80
2023/10/14 09:55:55;;;;;;;7.30;0.63;;;13.40;65.10;;;;;;5070268;28;20049;-78
2023/10/14 09:58:25;;;;;;;3.80;0.40;;;13.40;64.60;;;;;;5068750;28;20306;-79
2023/10/14 10:00:53;;;;;;;7.43;0.55;;;13.30;65.50;;;;;;5070389;28;20559;-79
2023/10/14 10:03:22;;;;;;;7.30;1.35;;;13.30;66.00;;;;;;5045394;28;20049;-79
2023/10/14 10:06:03;;;;;;;7.72;0.70;;;13.30;65.90;;;;;;5031480;28;20049;-79
2023/10/14 10:08:48;;;;;;;7.53;0.90;;;13.30;66.50;;;;;;5048710;28;20188;-77
2023/10/14 10:11:23;;;;;;;8.05;1.27;;;13.30;67.40;;;;;;5055379;28;20816;-78
2023/10/14 10:13:51;;;;;;;7.00;0.90;;;13.30;67.70;;;;;;5068376;28;20119;-78
2023/10/14 10:16:21;;;;;;;6.18;0.60;;;13.30;67.40;;;;;;5051664;28;20304;-79
2023/10/14 10:18:56;;;;;;;6.30;0.93;;;13.30;68.50;;;;;;5102205;27;20052;-79
2023/10/14 10:21:27;;;;;;;9.23;1.30;;;13.30;67.70;;;;;;5067075;28;20049;-79
2023/10/14 10:24:00;;;;;;;9.32;0.80;;;13.30;68.00;;;;;;5083742;28;20272;-79
2023/10/14 10:26:27;;;;;;;7.88;0.80;;;13.30;68.60;;;;;;5101029;27;20045;-79
2023/10/14 10:28:54;;;;;;;6.53;0.60;;;13.40;69.20;;;;;;5100259;27;20056;-78
2023/10/14 10:31:23;;;;;;;3.50;0.70;;;13.40;69.30;;;;;;5066812;28;20052;-78
2023/10/14 10:33:57;;;;;;;7.13;0.83;;;13.50;69.20;;;;;;5066853;28;20049;-79
2023/10/14 10:36:26;;;;;;;5.43;0.63;;;13.50;70.40;;;;;;5068398;28;20381;-79
2023/10/14 10:38:57;;;;;;;5.22;0.85;;;13.60;69.10;;;;;;5060491;28;20541;-79
2023/10/14 10:41:27;;;;;;;4.07;0.60;;;13.60;69.80;;;;;;5053556;28;20934;-80
2023/10/14 10:44:02;;;;;;;6.93;0.85;;;13.70;68.80;;;;;;5067662;28;20053;-79
2023/10/14 10:46:31;;;;;;;7.60;1.00;;;13.70;68.10;;;;;;5067428;28;20144;-78
2023/10/14 10:48:59;;;;;;;7.75;0.85;;;13.80;67.00;;;;;;5083919;28;20266;-78
2023/10/14 10:51:31;;;;;;;4.88;0.70;;;13.90;63.30;;;;;;5066372;28;20053;-79
2023/10/14 10:54:00;;;;;;;5.43;0.43;;;13.90;63.00;;;;;;5066436;28;20506;-78
2023/10/14 10:56:51;;;;;;;5.22;0.50;;;13.90;63.40;;;;;;5103683;28;20133;-78
2023/10/14 10:59:17;;;;;;;4.50;0.50;;;13.80;61.40;;;;;;5066359;28;20061;-78
2023/10/14 11:01:46;;;;;;;2.90;0.30;;;13.50;61.80;;;;;;5068822;28;20278;-78
2023/10/14 11:04:14;;;;;;;4.93;0.50;;;13.20;61.00;;;;;;5040607;28;20057;-78
2023/10/14 11:06:41;;;;;;;3.85;0.32;;;13.00;64.20;;;;;;5048923;28;20049;-78
2023/10/14 11:09:12;;;;;;;6.13;0.88;;;12.80;65.20;;;;;;5058250;28;20045;-78
2023/10/14 11:11:40;;;;;;;2.47;0.20;;;12.70;66.30;;;;;;5065925;28;20053;-78
2023/10/14 11:14:18;;;;;;;6.63;0.68;;;12.50;67.80;;;;;;5044995;28;20330;-78
2023/10/14 11:16:52;;;;;;;5.20;0.60;;;12.50;68.80;;;;;;5066785;28;20132;-77
2023/10/14 11:19:20;;;;;;;6.40;0.40;;;12.50;70.70;;;;;;5063963;28;20045;-78
2023/10/14 11:21:49;;;;;;;2.08;0.30;;;12.50;71.00;;;;;;5067022;28;20051;-78
2023/10/14 11:24:16;;;;;;;3.50;0.63;;;12.50;71.80;;;;;;5067083;28;20041;-78
2023/10/14 11:26:44;;;;;;;5.70;0.60;;;12.50;72.30;;;;;;5049082;28;20263;-77
2023/10/14 11:29:12;;;;;;;5.63;0.50;;;12.70;71.20;;;;;;5064963;28;20063;-78
2023/10/14 11:31:44;;;;;;;6.05;0.50;;;12.80;70.70;;;;;;5064660;28;20499;-79
2023/10/14 11:34:12;;;;;;;4.63;0.73;;;12.90;66.90;;;;;;5066686;28;20140;-78
2023/10/14 11:36:42;;;;;;;3.87;0.70;;;13.00;65.20;;;;;;5067121;28;20132;-78
2023/10/14 11:39:12;;;;;;;2.83;0.38;;;13.10;64.20;;;;;;5067287;28;20318;-78
2023/10/14 11:41:40;;;;;;;4.55;0.50;;;13.30;63.60;;;;;;5094141;28;20096;-77
2023/10/14 11:44:07;;;;;;;4.10;0.63;;;13.30;61.10;;;;;;5047110;28;20053;-77
2023/10/14 11:46:38;;;;;;;3.67;0.60;;;13.40;59.40;;;;;;5045343;28;20137;-77
2023/10/14 11:49:11;;;;;;;3.60;0.77;;;13.50;57.20;;;;;;5045584;28;20081;-77
2023/10/14 11:51:41;;;;;;;7.22;1.02;;;13.50;57.00;;;;;;5046915;28;20766;-77
2023/10/14 11:54:11;;;;;;;3.15;0.28;;;13.50;56.30;;;;;;5045202;28;20060;-77
2023/10/14 11:56:40;;;;;;;6.65;0.90;;;13.50;58.40;;;;;;5079187;28;20593;-77
2023/10/14 11:59:07;;;;;;;4.35;0.40;;;13.50;58.60;;;;;;5046769;28;20046;-77
2023/10/14 12:01:34;;;;;;;7.00;0.77;;;13.50;56.70;;;;;;5030607;28;20053;-77
2023/10/14 12:04:01;;;;;;;4.85;0.93;;;13.50;58.70;;;;;;5052273;28;20291;-77
2023/10/14 12:06:34;;;;;;;5.25;0.40;;;13.50;60.20;;;;;;5050056;28;20147;-77
2023/10/14 12:09:05;;;;;;;4.45;0.50;;;13.60;61.00;;;;;;5068600;28;20148;-78
2023/10/14 12:11:41;;;;;;;9.05;0.98;;;13.50;61.80;;;;;;5067881;28;20053;-77
2023/10/14 12:14:11;;;;;;;4.97;0.80;;;13.50;60.40;;;;;;5001340;28;21623;-77
2023/10/14 12:16:40;;;;;;;5.72;0.90;;;13.50;61.10;;;;;;5046098;28;20253;-78
2023/10/14 12:19:07;;;;;;;6.47;0.90;;;13.50;61.20;;;;;;5047883;28;20060;-78
2023/10/14 12:21:41;;;;;;;5.22;0.65;;;13.40;60.70;;;;;;5046554;28;20077;-78
2023/10/14 12:24:10;;;;;;;5.05;0.50;;;13.30;61.10;;;;;;5047770;28;20058;-78
2023/10/14 12:26:43;;;;;;;6.50;0.93;;;13.10;61.50;;;;;;5044047;28;20571;-79
2023/10/14 12:29:11;;;;;;;6.43;0.50;;;13.10;61.70;;;;;;5046487;28;20269;-79
2023/10/14 12:31:41;;;;;;;6.53;0.98;;;13.00;61.10;;;;;;5046702;28;20049;-79
2023/10/14 12:34:09;;;;;;;5.82;0.88;;;13.00;62.00;;;;;;5046794;28;20057;-81
2023/10/14 12:36:40;;;;;;;5.80;0.57;;;13.00;63.10;;;;;;5047865;28;20135;-78
2023/10/14 12:39:09;;;;;;;6.90;0.80;;;12.90;63.60;;;;;;5045558;28;20049;-77
2023/10/14 12:41:39;;;;;;;3.85;0.50;;;12.90;62.90;;;;;;5021947;28;20254;-77
2023/10/14 12:44:13;;;;;;;7.60;1.00;;;13.00;63.00;;;;;;5034899;28;20559;-78
2023/10/14 12:46:40;;;;;;;5.93;0.68;;;12.90;62.50;;;;;;5048061;28;20045;-78
2023/10/14 12:49:10;;;;;;;8.52;0.80;;;12.90;63.10;;;;;;5048413;28;20578;-77
2023/10/14 12:52:05;;;;;;;7.57;1.00;;;12.90;62.80;;;;;;5048684;28;20104;-77
2023/10/14 12:54:35;;;;;;;3.90;0.63;;;12.80;63.60;;;;;;5058023;28;20252;-77
2023/10/14 12:57:04;;;;;;;4.07;0.70;;;12.70;63.80;;;;;;5047574;28;20066;-78
2023/10/14 12:59:32;;;;;;;5.28;0.82;;;12.80;64.60;;;;;;5050686;28;20120;-77
2023/10/14 13:01:59;;;;;;;5.13;0.80;;;12.80;64.50;;;;;;5049277;28;20061;-76
2023/10/14 13:04:27;;;;;;;4.60;0.47;;;12.90;64.50;;;;;;5067004;22;20050;-77